Time;durP1;ratioP1;P1;durP2;ratioP2;P2;SDS_P1;SDS_P2;PMS_P1;PMS_P2;Temp;Humidity;BMP_temperature;BMP_pressure;BME280_temperature;BME280_humidity;BME280_pressure;Samples;Min_cycle;Max_cycle;Signal;HPM_P1;HPM_P2
2022/09/03 00:00:33;;;;;;;;;;;;;;;21.98;60.99;96814.28;180514;293;621644;-51
2022/09/03 00:01:36;;;;;;;;;;;;;;;21.97;60.94;96814.05;178754;296;621098;-49
2022/09/03 00:02:38;;;;;;;;;;;;;;;21.97;60.94;96814.05;180465;293;619988;-50
2022/09/03 00:03:40;;;;;;;;;;;;;;;21.95;60.95;96808.30;180524;293;621423;-49
2022/09/03 00:04:43;;;;;;;;;;;;;;;21.95;60.99;96813.02;180713;293;619207;-50
2022/09/03 00:05:44;;;;;;;;;;;;;;;21.95;60.98;96813.82;179132;296;620868;-50
2022/09/03 00:06:47;;;;;;;;;;;;;;;21.95;60.97;96808.30;180945;293;620584;-48
2022/09/03 00:07:48;;;;;;;;;;;;;;;21.95;60.99;96808.30;179520;296;620551;-49
2022/09/03 00:08:50;;;;;;;;;;;;;;;21.94;60.96;96808.07;180286;293;621695;-51
2022/09/03 00:09:52;;;;;;;;;;;;;;;21.96;60.95;96809.11;180831;293;621925;-51
2022/09/03 00:10:54;;;;;;;;;;;;;;;21.95;60.96;96806.92;180644;293;618582;-56
2022/09/03 00:11:56;;;;;;;;;;;;;;;21.95;60.96;96806.92;180733;293;620647;-48
2022/09/03 00:12:59;;;;;;;;;;;;;;;21.96;60.99;96807.73;180601;293;621384;-49
2022/09/03 00:14:02;;;;;;;;;;;;;;;21.95;61.05;96807.50;180479;293;620348;-48
2022/09/03 00:15:03;;;;;;;;;;;;;;;21.97;61.01;96806.58;180379;293;621395;-51
2022/09/03 00:16:09;;;;;;;;;;;;;;;21.98;60.97;96801.86;180475;293;621097;-48
2022/09/03 00:17:09;;;;;;;;;;;;;;;21.98;61.01;96804.05;179075;296;589927;-51
2022/09/03 00:18:11;;;;;;;;;;;;;;;22.01;61.09;96806.69;180649;293;621581;-47
2022/09/03 00:19:13;;;;;;;;;;;;;;;22.06;61.04;96808.70;180727;293;620025;-50
2022/09/03 00:20:15;;;;;;;;;;;;;;;22.09;60.93;96805.25;180505;293;620193;-51
2022/09/03 00:21:17;;;;;;;;;;;;;;;22.14;60.84;96812.52;180394;293;621110;-47
2022/09/03 00:22:19;;;;;;;;;;;;;;;22.13;60.79;96802.63;180419;293;621082;-53
2022/09/03 00:23:21;;;;;;;;;;;;;;;22.16;60.79;96800.56;180596;293;620164;-49
2022/09/03 00:24:23;;;;;;;;;;;;;;;22.14;60.79;96796.77;180762;293;620454;-46
2022/09/03 00:25:24;;;;;;;;;;;;;;;22.15;60.84;96809.41;179160;296;621284;-47
2022/09/03 00:26:27;;;;;;;;;;;;;;;22.16;60.81;96802.74;180952;293;622100;-49
2022/09/03 00:27:29;;;;;;;;;;;;;;;22.16;60.75;96801.94;180918;293;621482;-48
2022/09/03 00:28:31;;;;;;;;;;;;;;;22.16;60.72;96804.70;180484;293;620663;-47
2022/09/03 00:29:33;;;;;;;;;;;;;;;22.16;60.75;96793.66;180496;293;621799;-48
2022/09/03 00:30:35;;;;;;;;;;;;;;;22.18;60.73;96799.06;180599;293;620326;-47
2022/09/03 00:31:37;;;;;;;;;;;;;;;22.17;60.72;96796.07;180843;293;620187;-47
2022/09/03 00:32:39;;;;;;;;;;;;;;;22.18;60.72;96794.11;179016;296;618483;-47
2022/09/03 00:33:42;;;;;;;;;;;;;;;22.19;60.69;96795.72;180500;293;621077;-46
2022/09/03 00:34:44;;;;;;;;;;;;;;;22.22;60.68;96800.55;180687;293;620811;-49
2022/09/03 00:35:46;;;;;;;;;;;;;;;22.21;60.62;96794.80;178790;296;621044;-48
2022/09/03 00:36:48;;;;;;;;;;;;;;;22.21;60.65;96796.19;180561;293;621026;-49
2022/09/03 00:37:51;;;;;;;;;;;;;;;22.22;60.61;96795.03;180685;293;621220;-48
2022/09/03 00:38:52;;;;;;;;;;;;;;;22.24;60.59;96796.90;180645;293;621503;-48
2022/09/03 00:39:54;;;;;;;;;;;;;;;22.23;60.59;96793.33;180866;293;620853;-56
2022/09/03 00:40:56;;;;;;;;;;;;;;;22.26;60.57;96797.93;178909;294;620023;-48
2022/09/03 00:41:58;;;;;;;;;;;;;;;22.24;60.55;96792.76;180797;293;620279;-46
2022/09/03 00:43:00;;;;;;;;;;;;;;;22.26;60.52;96789.65;179341;296;620321;-48
2022/09/03 00:44:02;;;;;;;;;;;;;;;22.26;60.50;96793.21;180602;293;621424;-49
2022/09/03 00:45:05;;;;;;;;;;;;;;;22.26;60.48;96793.21;180734;293;621607;-51
2022/09/03 00:46:07;;;;;;;;;;;;;;;22.27;60.47;96792.64;180507;293;620559;-46
2022/09/03 00:47:10;;;;;;;;;;;;;;;22.27;60.46;96792.06;178451;296;620732;-47
2022/09/03 00:48:11;;;;;;;;;;;;;;;22.24;60.43;96787.23;180112;293;620394;-49
2022/09/03 00:49:13;;;;;;;;;;;;;;;22.25;60.44;96787.46;180159;292;620773;-46
2022/09/03 00:50:15;;;;;;;;;;;;;;;22.25;60.44;96791.60;179386;295;619843;-48
2022/09/03 00:51:17;;;;;;;;;;;;;;;22.23;60.44;96789.77;180632;293;621369;-46
2022/09/03 00:52:20;;;;;;;;;;;;;;;22.24;60.41;96788.62;180461;293;619916;-50
2022/09/03 00:53:22;;;;;;;;;;;;;;;22.24;60.42;96790.00;178622;296;620474;-48
2022/09/03 00:54:24;;;;;;;;;;;;;;;22.24;60.37;96787.23;178883;296;621115;-52
2022/09/03 00:55:26;;;;;;;;;;;;;;;22.22;60.36;96786.20;178616;296;621152;-48
2022/09/03 00:56:28;;;;;;;;;;;;;;;22.22;60.30;96789.51;180137;294;621565;-48
2022/09/03 00:57:30;;;;;;;;;;;;;;;22.21;60.25;96782.38;180397;294;620362;-53
2022/09/03 00:58:32;;;;;;;;;;;;;;;22.17;60.24;96784.23;180484;294;621374;-49
2022/09/03 00:59:34;;;;;;;;;;;;;;;22.16;60.23;96779.86;178824;296;620301;-48
2022/09/03 01:00:36;;;;;;;;;;;;;;;22.15;60.23;96781.01;180657;294;621174;-51
2022/09/03 01:01:37;;;;;;;;;;;;;;;22.13;60.35;96779.17;179101;296;620112;-47
2022/09/03 01:02:40;;;;;;;;;;;;;;;22.10;60.30;96782.02;180765;294;620403;-54
2022/09/03 01:03:42;;;;;;;;;;;;;;;22.10;60.29;96785.36;180380;294;619631;-50
2022/09/03 01:04:44;;;;;;;;;;;;;;;22.07;60.29;96783.29;178830;296;621194;-46
2022/09/03 01:05:46;;;;;;;;;;;;;;;22.05;60.27;96777.28;180397;294;620113;-47
2022/09/03 01:06:48;;;;;;;;;;;;;;;22.04;60.30;96783.38;178814;296;620169;-48
2022/09/03 01:07:50;;;;;;;;;;;;;;;22.02;60.30;96782.11;180110;294;621315;-52
2022/09/03 01:08:52;;;;;;;;;;;;;;;22.01;60.32;96781.86;179913;294;621085;-48
2022/09/03 01:09:55;;;;;;;;;;;;;;;22.00;60.33;96778.86;180741;294;622309;-50
2022/09/03 01:10:57;;;;;;;;;;;;;;;21.99;60.35;96784.16;179607;295;620274;-50
2022/09/03 01:11:58;;;;;;;;;;;;;;;21.97;60.33;96789.22;179571;295;619443;-48
2022/09/03 01:13:00;;;;;;;;;;;;;;;21.98;60.44;96786.69;179551;295;621158;-48
2022/09/03 01:14:02;;;;;;;;;;;;;;;21.97;60.46;96790.59;179732;295;621223;-51
2022/09/03 01:15:04;;;;;;;;;;;;;;;21.94;60.43;96790.14;179238;295;621268;-48
2022/09/03 01:16:06;;;;;;;;;;;;;;;21.91;61.79;96788.06;179640;295;620341;-47
2022/09/03 01:17:08;;;;;;;;;;;;;;;21.80;62.96;96792.41;179722;295;621063;-49
2022/09/03 01:18:10;;;;;;;;;;;;;;;21.77;62.33;96791.69;179373;295;621044;-48
2022/09/03 01:19:12;;;;;;;;;;;;;;;21.77;61.92;96794.45;179510;295;620899;-53
2022/09/03 01:20:14;;;;;;;;;;;;;;;21.78;61.62;96794.67;178583;296;620711;-50
2022/09/03 01:21:16;;;;;;;;;;;;;;;21.80;61.39;96795.17;179281;296;619528;-50
2022/09/03 01:22:19;;;;;;;;;;;;;;;21.81;61.25;96800.11;180086;294;621579;-54
2022/09/03 01:23:22;;;;;;;;;;;;;;;21.83;61.17;96796.44;178916;296;619343;-50
2022/09/03 01:24:27;;;;;;;;;;;;;;;21.84;61.16;96793.33;180436;294;621229;-45
2022/09/03 01:25:30;;;;;;;;;;;;;;;21.86;61.09;96796.55;178756;295;588291;-46
2022/09/03 01:26:31;;;;;;;;;;;;;;;21.87;61.04;96796.78;180537;294;587486;-48
2022/09/03 01:27:33;;;;;;;;;;;;;;;21.89;61.00;96792.30;180205;294;621629;-47
2022/09/03 01:28:35;;;;;;;;;;;;;;;21.90;60.98;96796.12;180013;294;620798;-48
2022/09/03 01:29:37;;;;;;;;;;;;;;;21.92;60.93;96799.91;180749;294;622001;-45
2022/09/03 01:30:39;;;;;;;;;;;;;;;21.93;60.90;96795.42;180324;294;619861;-48
2022/09/03 01:31:42;;;;;;;;;;;;;;;21.95;60.89;96800.59;180403;294;619504;-45
2022/09/03 01:32:43;;;;;;;;;;;;;;;21.95;60.84;96801.41;180511;294;621305;-45
2022/09/03 01:33:45;;;;;;;;;;;;;;;21.97;60.84;96797.49;180218;294;620386;-45
2022/09/03 01:34:47;;;;;;;;;;;;;;;21.98;60.81;96797.72;180082;294;620567;-48
2022/09/03 01:35:49;;;;;;;;;;;;;;;21.99;60.76;96794.62;180646;294;621164;-45
2022/09/03 01:36:51;;;;;;;;;;;;;;;21.99;60.74;96794.62;178902;296;622288;-45
2022/09/03 01:37:53;;;;;;;;;;;;;;;22.01;60.73;96799.80;180543;294;622476;-49
2022/09/03 01:38:55;;;;;;;;;;;;;;;22.00;60.72;96796.80;180463;294;621510;-49
2022/09/03 01:39:57;;;;;;;;;;;;;;;22.03;60.70;96800.28;178985;296;621814;-46
2022/09/03 01:42:12;;;;;;;;;;;;;;;22.02;60.66;96798.67;180756;294;621394;-46
2022/09/03 01:42:15;;;;;;;;;;;;;;;22.01;60.65;96795.11;179805;294;586246;-48
2022/09/03 01:43:17;;;;;;;;;;;;;;;22.02;60.64;96796.72;180622;294;620025;-46
2022/09/03 01:44:19;;;;;;;;;;;;;;;22.03;60.63;96792.00;180565;294;620139;-45
2022/09/03 01:45:21;;;;;;;;;;;;;;;22.04;60.60;96792.23;180442;294;620432;-47
2022/09/03 01:46:23;;;;;;;;;;;;;;;;;;178582;296;621285;-49
2022/09/03 01:47:24;;;;;;;;;;;;;;;;;;179287;295;581213;-50
2022/09/03 01:48:29;;;;;;;;;;;;;;;22.04;60.60;96792.23;178482;296;581844;-47
2022/09/03 01:49:31;;;;;;;;;;;;;;;22.04;60.56;96795.80;178226;297;592153;-54
2022/09/03 01:50:33;;;;;;;;;;;;;;;22.05;60.54;96793.84;178324;297;621324;-50
2022/09/03 01:51:35;;;;;;;;;;;;;;;22.06;60.53;96794.06;179462;295;621516;-49
2022/09/03 01:52:37;;;;;;;;;;;;;;;22.05;60.52;96802.12;179456;295;618719;-47
2022/09/03 01:53:39;;;;;;;;;;;;;;;22.06;60.50;96796.83;179613;295;621188;-50
2022/09/03 01:54:41;;;;;;;;;;;;;;;;;;179646;295;622390;-47
2022/09/03 01:55:43;;;;;;;;;;;;;;;22.04;60.51;96794.98;179286;295;620499;-47
2022/09/03 01:56:45;;;;;;;;;;;;;;;22.03;60.50;96794.77;179256;295;620947;-51
2022/09/03 01:57:47;;;;;;;;;;;;;;;22.02;60.47;96785.67;179322;295;619712;-47
2022/09/03 01:58:48;;;;;;;;;;;;;;;22.02;60.47;96784.87;179493;295;621412;-47
2022/09/03 01:59:50;;;;;;;;;;;;;;;22.01;60.46;96787.38;179474;295;618761;-48
2022/09/03 02:00:52;;;;;;;;;;;;;;;22.01;60.47;96792.89;179183;295;621273;-48
2022/09/03 02:01:55;;;;;;;;;;;;;;;22.02;60.51;96789.02;179083;295;620883;-53
2022/09/03 02:02:57;;;;;;;;;;;;;;;22.01;60.54;96788.75;179769;295;620276;-48
2022/09/03 02:03:59;;;;;;;;;;;;;;;;;;179641;295;621460;-48
2022/09/03 02:05:01;;;;;;;;;;;;;;;22.04;60.46;96790.84;179514;295;622227;-47
2022/09/03 02:06:04;;;;;;;;;;;;;;;22.05;60.42;96783.61;179386;295;622620;-49
2022/09/03 02:07:06;;;;;;;;;;;;;;;22.08;60.37;96786.28;179231;295;620248;-46
2022/09/03 02:08:08;;;;;;;;;;;;;;;22.09;60.33;96790.65;179145;295;621590;-47
2022/09/03 02:09:10;;;;;;;;;;;;;;;22.10;60.28;96788.92;179008;295;620161;-49
2022/09/03 02:10:12;;;;;;;;;;;;;;;22.13;60.27;96788.83;179235;295;621305;-46
2022/09/03 02:11:14;;;;;;;;;;;;;;;22.14;60.24;96789.06;179451;295;622184;-47
2022/09/03 02:12:17;;;;;;;;;;;;;;;22.14;60.20;96792.63;179687;295;619392;-49
2022/09/03 02:13:19;;;;;;;;;;;;;;;22.16;60.15;96794.46;179620;295;620857;-47
2022/09/03 02:14:21;;;;;;;;;;;;;;;22.17;60.11;96790.55;178579;297;621747;-48
2022/09/03 02:15:23;;;;;;;;;;;;;;;22.19;60.09;96791.01;179104;295;621670;-47
2022/09/03 02:16:25;;;;;;;;;;;;;;;22.19;60.05;96786.87;179543;295;622599;-48
2022/09/03 02:17:27;;;;;;;;;;;;;;;22.21;60.03;96783.18;179333;295;619608;-49
2022/09/03 02:18:29;;;;;;;;;;;;;;;22.21;59.98;96785.14;179687;295;621937;-47
2022/09/03 02:19:33;;;;;;;;;;;;;;;22.22;59.97;96782.61;179248;295;619275;-47
2022/09/03 02:20:35;;;;;;;;;;;;;;;22.21;59.97;96780.42;179241;295;621474;-49
2022/09/03 02:21:37;;;;;;;;;;;;;;;22.23;59.99;96780.11;179811;295;620451;-47
2022/09/03 02:22:39;;;;;;;;;;;;;;;22.24;59.97;96783.09;179773;295;620126;-50
2022/09/03 02:23:41;;;;;;;;;;;;;;;22.23;59.94;96782.87;179686;295;619718;-48
2022/09/03 02:24:43;;;;;;;;;;;;;;;22.23;59.91;96784.25;179640;295;621467;-46
2022/09/03 02:25:45;;;;;;;;;;;;;;;22.25;59.91;96787.46;179385;295;621362;-49
2022/09/03 02:26:47;;;;;;;;;;;;;;;22.24;59.90;96788.62;179276;295;619795;-46
2022/09/03 02:27:49;;;;;;;;;;;;;;;22.25;59.89;96786.08;179290;295;621331;-46
2022/09/03 02:28:51;;;;;;;;;;;;;;;22.25;59.86;96777.80;178980;295;620159;-51
2022/09/03 02:29:52;;;;;;;;;;;;;;;22.27;59.85;96788.50;179644;295;620054;-47
2022/09/03 02:30:55;;;;;;;;;;;;;;;22.26;59.85;96789.07;179461;295;620225;-57
2022/09/03 02:31:57;;;;;;;;;;;;;;;22.25;59.84;96781.14;179543;295;619112;-46
2022/09/03 02:32:59;;;;;;;;;;;;;;;22.26;59.81;96778.61;179364;295;621004;-49
2022/09/03 02:34:01;;;;;;;;;;;;;;;22.26;59.81;96783.55;179142;295;619981;-46
2022/09/03 02:35:03;;;;;;;;;;;;;;;22.27;59.78;96784.36;179282;295;620148;-48
2022/09/03 02:36:05;;;;;;;;;;;;;;;22.27;59.78;96785.16;179787;295;621119;-50
2022/09/03 02:37:07;;;;;;;;;;;;;;;22.27;59.75;96785.73;179625;295;620232;-46
2022/09/03 02:38:09;;;;;;;;;;;;;;;22.26;59.77;96782.17;179638;295;622352;-50
2022/09/03 02:39:11;;;;;;;;;;;;;;;22.27;59.77;96787.92;179447;295;620581;-46
2022/09/03 02:40:13;;;;;;;;;;;;;;;22.27;59.77;96782.40;179357;295;620636;-49
2022/09/03 02:41:15;;;;;;;;;;;;;;;22.28;59.74;96779.86;179078;295;621226;-50
2022/09/03 02:42:17;;;;;;;;;;;;;;;22.26;59.73;96784.93;179113;295;620841;-46
2022/09/03 02:43:19;;;;;;;;;;;;;;;22.27;59.73;96783.78;179151;295;621335;-46
2022/09/03 02:44:24;;;;;;;;;;;;;;;22.27;59.75;96783.78;179510;295;620011;-47
2022/09/03 02:45:25;;;;;;;;;;;;;;;22.26;59.74;96779.98;179387;294;590540;-50
2022/09/03 02:46:27;;;;;;;;;;;;;;;22.26;59.74;96777.23;179575;295;620142;-47
2022/09/03 02:47:29;;;;;;;;;;;;;;;22.25;59.72;96783.33;179517;295;620547;-49
2022/09/03 02:48:31;;;;;;;;;;;;;;;22.26;59.72;96778.61;179652;295;619988;-47
2022/09/03 02:49:33;;;;;;;;;;;;;;;22.26;59.74;96783.55;179562;295;620343;-47
2022/09/03 02:50:35;;;;;;;;;;;;;;;22.25;59.75;96779.19;179697;295;621291;-48
2022/09/03 02:51:37;;;;;;;;;;;;;;;22.25;59.74;96776.42;179587;295;620305;-49
2022/09/03 02:52:39;;;;;;;;;;;;;;;22.26;59.75;96782.17;179559;295;622060;-50
2022/09/03 02:53:41;;;;;;;;;;;;;;;22.25;59.73;96780.56;179243;295;621424;-46
2022/09/03 02:54:44;;;;;;;;;;;;;;;22.26;59.72;96783.55;179108;295;620359;-49
2022/09/03 02:55:46;;;;;;;;;;;;;;;22.25;59.74;96781.95;178923;295;620868;-49
2022/09/03 02:56:48;;;;;;;;;;;;;;;22.25;59.75;96782.52;178119;297;620724;-51
2022/09/03 02:57:50;;;;;;;;;;;;;;;22.26;59.76;96791.83;178162;297;621026;-47
2022/09/03 02:58:53;;;;;;;;;;;;;;;22.27;59.74;96789.88;178012;297;620410;-48
2022/09/03 02:59:55;;;;;;;;;;;;;;;22.24;59.75;96783.09;178052;297;621047;-52
2022/09/03 03:00:56;;;;;;;;;;;;;;;22.24;59.74;96774.81;178391;297;621370;-46
2022/09/03 03:01:58;;;;;;;;;;;;;;;22.22;59.72;96776.55;178532;297;621300;-48
2022/09/03 03:03:00;;;;;;;;;;;;;;;22.25;59.76;96780.56;178435;297;620249;-47
2022/09/03 03:04:02;;;;;;;;;;;;;;;22.23;59.74;96779.53;178242;297;620570;-49
2022/09/03 03:05:06;;;;;;;;;;;;;;;22.23;59.71;96777.34;178271;297;620447;-46
2022/09/03 03:06:07;;;;;;;;;;;;;;;22.23;59.75;96780.91;178035;297;621679;-47
2022/09/03 03:07:09;;;;;;;;;;;;;;;22.23;59.74;96780.91;178126;297;620656;-48
2022/09/03 03:08:13;;;;;;;;;;;;;;;22.23;59.73;96778.73;178126;297;621309;-46
2022/09/03 03:09:15;;;;;;;;;;;;;;;22.23;59.71;96775.97;178435;297;591054;-50
2022/09/03 03:10:17;;;;;;;;;;;;;;;22.23;59.75;96778.73;178270;297;621497;-45
2022/09/03 03:11:20;;;;;;;;;;;;;;;22.22;59.73;96783.44;177998;297;621572;-54
2022/09/03 03:12:22;;;;;;;;;;;;;;;22.23;59.76;96778.73;178177;297;620126;-45
2022/09/03 03:13:24;;;;;;;;;;;;;;;22.23;59.76;96775.97;177946;297;621556;-46
2022/09/03 03:14:26;;;;;;;;;;;;;;;22.23;59.79;96777.34;177852;297;620410;-46
2022/09/03 03:15:27;;;;;;;;;;;;;;;22.22;59.80;96781.23;177749;297;621024;-49
2022/09/03 03:16:29;;;;;;;;;;;;;;;22.23;59.81;96780.11;178167;297;620698;-47
2022/09/03 03:17:31;;;;;;;;;;;;;;;22.23;59.84;96778.73;177960;297;620307;-46
2022/09/03 03:18:33;;;;;;;;;;;;;;;22.22;59.81;96779.30;178193;297;621495;-55
2022/09/03 03:19:36;;;;;;;;;;;;;;;22.23;59.78;96781.48;178177;297;621268;-46
2022/09/03 03:20:38;;;;;;;;;;;;;;;22.22;59.80;96777.09;178335;297;622699;-46
2022/09/03 03:21:40;;;;;;;;;;;;;;;22.22;59.84;96779.30;178437;297;618432;-46
2022/09/03 03:22:42;;;;;;;;;;;;;;;22.21;59.82;96781.00;178455;297;621144;-47
2022/09/03 03:23:44;;;;;;;;;;;;;;;22.20;59.84;96784.34;178276;297;621167;-46
2022/09/03 03:24:49;;;;;;;;;;;;;;;22.21;59.84;96775.48;178224;297;619537;-49
2022/09/03 03:25:49;;;;;;;;;;;;;;;22.21;59.83;96781.00;178355;297;588143;-46
2022/09/03 03:26:51;;;;;;;;;;;;;;;22.21;59.83;96777.66;178255;297;619350;-46
2022/09/03 03:27:55;;;;;;;;;;;;;;;22.21;59.83;96776.28;178432;297;620785;-49
2022/09/03 03:28:57;;;;;;;;;;;;;;;22.21;59.83;96776.28;178486;297;590923;-47
2022/09/03 03:29:59;;;;;;;;;;;;;;;22.21;59.83;96780.42;178461;297;620896;-48
2022/09/03 03:31:01;;;;;;;;;;;;;;;22.20;59.86;96778.81;178206;297;620552;-48
2022/09/03 03:32:03;;;;;;;;;;;;;;;22.19;59.89;96773.64;178123;297;621064;-49
2022/09/03 03:33:04;;;;;;;;;;;;;;;22.18;59.89;96774.80;178245;297;621298;-48
2022/09/03 03:34:06;;;;;;;;;;;;;;;22.18;59.89;96772.03;178025;297;619603;-46
2022/09/03 03:35:10;;;;;;;;;;;;;;;22.20;59.89;96778.01;177833;297;621221;-49
2022/09/03 03:36:12;;;;;;;;;;;;;;;22.21;59.89;96777.66;178168;297;620864;-48
2022/09/03 03:37:14;;;;;;;;;;;;;;;22.20;59.90;96769.73;178386;297;621794;-46
2022/09/03 03:38:16;;;;;;;;;;;;;;;22.18;59.89;96767.31;178128;297;620375;-46
2022/09/03 03:39:19;;;;;;;;;;;;;;;22.18;59.90;96765.13;177948;297;621110;-46
2022/09/03 03:40:21;;;;;;;;;;;;;;;22.19;59.88;96763.41;178043;297;620304;-46
2022/09/03 03:41:23;;;;;;;;;;;;;;;22.18;59.90;96770.08;177870;297;620686;-47
2022/09/03 03:42:25;;;;;;;;;;;;;;;22.20;59.90;96768.34;177984;297;621043;-50
2022/09/03 03:43:27;;;;;;;;;;;;;;;22.19;59.92;96771.69;178857;295;619950;-47
2022/09/03 03:44:29;;;;;;;;;;;;;;;22.17;59.92;96767.09;179297;295;621190;-50
2022/09/03 03:45:31;;;;;;;;;;;;;;;22.19;59.90;96762.60;179301;295;619281;-45
2022/09/03 03:46:33;;;;;;;;;;;;;;;22.18;59.91;96766.52;179091;295;621096;-45
2022/09/03 03:47:35;;;;;;;;;;;;;;;22.20;59.89;96766.97;179768;294;622077;-51
2022/09/03 03:48:37;;;;;;;;;;;;;;;22.19;59.90;96763.98;179581;294;619334;-46
2022/09/03 03:49:39;;;;;;;;;;;;;;;22.18;59.90;96755.47;179713;294;620462;-52
2022/09/03 03:50:41;;;;;;;;;;;;;;;22.16;59.86;96761.34;179813;294;620334;-47
2022/09/03 03:51:43;;;;;;;;;;;;;;;22.19;59.86;96762.60;180274;294;622009;-46
2022/09/03 03:52:45;;;;;;;;;;;;;;;22.18;59.86;96763.17;179964;294;620588;-49
2022/09/03 03:53:47;;;;;;;;;;;;;;;22.19;59.88;96770.88;179827;294;620422;-46
2022/09/03 03:54:49;;;;;;;;;;;;;;;22.17;59.88;96764.91;179688;294;620663;-47
2022/09/03 03:55:51;;;;;;;;;;;;;;;22.17;59.89;96763.52;179606;294;620277;-47
2022/09/03 03:56:53;;;;;;;;;;;;;;;22.17;59.91;96765.70;179764;294;621720;-47
2022/09/03 03:57:55;;;;;;;;;;;;;;;22.17;59.92;96764.33;179915;294;620362;-51
2022/09/03 03:58:57;;;;;;;;;;;;;;;22.19;59.88;96762.60;179918;294;619298;-51
2022/09/03 03:59:59;;;;;;;;;;;;;;;22.19;59.94;96763.98;180201;294;620946;-49
2022/09/03 04:01:01;;;;;;;;;;;;;;;22.20;59.87;96770.53;180160;294;620272;-46
2022/09/03 04:02:03;;;;;;;;;;;;;;;22.21;59.89;96763.05;179663;294;620334;-46
2022/09/03 04:03:05;;;;;;;;;;;;;;;22.20;59.90;96762.83;179736;294;621362;-48
2022/09/03 04:04:07;;;;;;;;;;;;;;;22.20;59.91;96765.02;179817;294;619492;-45
2022/09/03 04:05:09;;;;;;;;;;;;;;;22.19;59.92;96764.78;179983;294;620829;-49
2022/09/03 04:06:11;;;;;;;;;;;;;;;22.18;59.91;96758.23;180129;294;620469;-49
2022/09/03 04:07:13;;;;;;;;;;;;;;;22.17;59.92;96757.42;180182;294;619754;-49
2022/09/03 04:08:14;;;;;;;;;;;;;;;22.18;59.91;96765.13;180392;294;621261;-46
2022/09/03 04:09:16;;;;;;;;;;;;;;;22.17;59.94;96762.95;180302;294;619294;-47
2022/09/03 04:10:18;;;;;;;;;;;;;;;22.17;59.93;96753.28;180222;294;621321;-48
2022/09/03 04:11:20;;;;;;;;;;;;;;;22.18;59.91;96758.23;179838;294;620998;-48
2022/09/03 04:12:22;;;;;;;;;;;;;;;22.18;59.91;96761.80;179992;294;620171;-46
2022/09/03 04:13:25;;;;;;;;;;;;;;;22.18;59.92;96758.23;180117;294;621347;-50
2022/09/03 04:14:27;;;;;;;;;;;;;;;22.16;59.89;96755.02;180390;294;619725;-46
2022/09/03 04:15:29;;;;;;;;;;;;;;;22.17;59.90;96758.80;180394;294;620588;-47
2022/09/03 04:16:31;;;;;;;;;;;;;;;22.17;59.91;96760.19;180297;294;620405;-46
2022/09/03 04:17:33;;;;;;;;;;;;;;;22.16;59.93;96753.63;180199;294;618954;-48
2022/09/03 04:18:35;;;;;;;;;;;;;;;22.16;59.93;96759.16;179876;294;620476;-46
2022/09/03 04:19:37;;;;;;;;;;;;;;;22.17;59.92;96752.48;180087;294;620247;-45
2022/09/03 04:20:39;;;;;;;;;;;;;;;22.15;59.90;96758.92;180257;294;621042;-47
2022/09/03 04:21:41;;;;;;;;;;;;;;;22.17;59.93;96758.00;180101;294;621682;-46
2022/09/03 04:22:43;;;;;;;;;;;;;;;22.17;59.91;96755.24;180445;294;620429;-46
2022/09/03 04:23:45;;;;;;;;;;;;;;;22.15;59.92;96752.83;180242;294;621235;-49
2022/09/03 04:24:47;;;;;;;;;;;;;;;22.16;59.92;96753.06;180106;294;622549;-47
2022/09/03 04:25:49;;;;;;;;;;;;;;;22.16;59.89;96753.63;179952;294;619620;-48
2022/09/03 04:26:52;;;;;;;;;;;;;;;22.16;59.91;96753.63;180198;294;620485;-50
2022/09/03 04:27:54;;;;;;;;;;;;;;;22.17;59.88;96760.19;180386;294;618854;-54
2022/09/03 04:28:56;;;;;;;;;;;;;;;22.17;59.86;96758.00;179577;294;620773;-46
2022/09/03 04:29:58;;;;;;;;;;;;;;;22.16;59.86;96751.68;179749;294;620801;-47
2022/09/03 04:31:00;;;;;;;;;;;;;;;22.16;59.85;96752.25;179870;294;618961;-50
2022/09/03 04:33:22;;;;;;;;;;;;;;;22.16;59.84;96755.02;180169;294;581300;-48
2022/09/03 04:34:24;;;;;;;;;;;;;;;22.15;59.84;96754.78;179735;294;621290;-49
2022/09/03 04:35:28;;;;;;;;;;;;;;;22.17;59.85;96753.86;179750;294;621382;-45
2022/09/03 04:36:30;;;;;;;;;;;;;;;22.15;59.83;96755.59;179780;294;587834;-50
2022/09/03 04:37:32;;;;;;;;;;;;;;;22.16;59.85;96750.88;179909;294;621028;-47
2022/09/03 04:38:34;;;;;;;;;;;;;;;22.15;59.82;96756.16;180088;294;620435;-49
2022/09/03 04:39:36;;;;;;;;;;;;;;;22.16;59.79;96756.39;180129;294;620411;-47
2022/09/03 04:40:38;;;;;;;;;;;;;;;22.16;59.79;96753.63;179835;294;621434;-45
2022/09/03 04:41:40;;;;;;;;;;;;;;;22.16;59.76;96756.39;179713;294;620575;-51
2022/09/03 04:42:42;;;;;;;;;;;;;;;22.15;59.77;96752.83;179680;294;619939;-49
2022/09/03 04:43:44;;;;;;;;;;;;;;;22.15;59.79;96747.89;179819;294;620534;-47
2022/09/03 04:44:46;;;;;;;;;;;;;;;22.16;59.78;96748.11;179861;294;619343;-46
2022/09/03 04:45:48;;;;;;;;;;;;;;;22.16;59.77;96747.54;180027;294;621073;-47
2022/09/03 04:46:52;;;;;;;;;;;;;;;22.16;59.78;96742.59;180178;294;619859;-51
2022/09/03 04:47:54;;;;;;;;;;;;;;;22.15;59.79;96744.55;180338;294;620992;-49
2022/09/03 04:48:56;;;;;;;;;;;;;;;22.16;59.77;96742.02;180195;294;621345;-46
2022/09/03 04:50:00;;;;;;;;;;;;;;;22.16;59.79;96745.35;180044;294;620965;-47
2022/09/03 04:51:04;;;;;;;;;;;;;;;22.16;59.78;96744.78;179841;294;620429;-45
2022/09/03 04:52:05;;;;;;;;;;;;;;;22.16;59.81;96748.92;180299;294;586106;-48
2022/09/03 04:53:07;;;;;;;;;;;;;;;22.19;59.81;96754.32;179896;294;619170;-46
2022/09/03 04:54:09;;;;;;;;;;;;;;;22.17;59.78;96753.86;179912;294;620702;-47
2022/09/03 04:55:12;;;;;;;;;;;;;;;22.17;59.79;96747.77;179843;294;621365;-46
2022/09/03 04:56:14;;;;;;;;;;;;;;;22.18;59.78;96752.71;179665;294;621493;-47
2022/09/03 04:57:16;;;;;;;;;;;;;;;22.19;59.79;96759.27;179858;294;620968;-47
2022/09/03 04:58:18;;;;;;;;;;;;;;;22.20;59.77;96764.20;179922;294;620701;-48
2022/09/03 04:59:19;;;;;;;;;;;;;;;22.18;59.77;96758.23;179857;294;619695;-45
2022/09/03 05:00:21;;;;;;;;;;;;;;;22.18;59.78;96754.89;179890;294;621244;-45
2022/09/03 05:01:23;;;;;;;;;;;;;;;22.18;59.77;96756.85;179986;294;621284;-47
2022/09/03 05:02:25;;;;;;;;;;;;;;;22.18;59.84;96759.61;180414;294;619966;-48
2022/09/03 05:03:29;;;;;;;;;;;;;;;22.19;59.85;96759.27;180322;294;620336;-46
2022/09/03 05:04:31;;;;;;;;;;;;;;;22.20;59.85;96758.69;179814;294;592305;-48
2022/09/03 05:05:33;;;;;;;;;;;;;;;22.17;59.83;96762.95;180006;294;620914;-48
2022/09/03 05:06:35;;;;;;;;;;;;;;;22.20;59.85;96762.83;179831;294;621236;-46
2022/09/03 05:07:37;;;;;;;;;;;;;;;22.18;59.80;96770.08;179845;294;619921;-45
2022/09/03 05:08:39;;;;;;;;;;;;;;;22.19;59.79;96766.74;179544;294;621292;-52
2022/09/03 05:09:41;;;;;;;;;;;;;;;22.16;59.92;96759.96;179670;294;620579;-47
2022/09/03 05:10:43;;;;;;;;;;;;;;;22.18;59.94;96758.23;179831;294;619774;-48
2022/09/03 05:11:45;;;;;;;;;;;;;;;22.19;59.88;96759.84;179915;294;620298;-49
2022/09/03 05:12:48;;;;;;;;;;;;;;;22.20;59.86;96766.97;179957;294;621381;-47
2022/09/03 05:13:50;;;;;;;;;;;;;;;22.20;59.80;96766.97;179830;294;619934;-52
2022/09/03 05:14:52;;;;;;;;;;;;;;;22.22;59.76;96772.95;179772;294;621280;-48
2022/09/03 05:15:54;;;;;;;;;;;;;;;22.21;59.75;96776.86;180055;294;619694;-50
2022/09/03 05:16:56;;;;;;;;;;;;;;;22.20;59.74;96767.77;180283;294;620959;-50
2022/09/03 05:17:58;;;;;;;;;;;;;;;22.20;59.77;96770.53;180133;294;621346;-48
2022/09/03 05:19:00;;;;;;;;;;;;;;;22.21;59.73;96769.95;179943;294;619726;-48
2022/09/03 05:20:02;;;;;;;;;;;;;;;22.19;59.71;96768.13;180057;294;621062;-49
2022/09/03 05:21:04;;;;;;;;;;;;;;;22.19;59.70;96763.41;180233;294;620275;-48